sensor_id;sensor_type;location;lat;lon;timestamp;P1;durP1;ratioP1;P2;durP2;ratioP2
37367;SDS011;23240;43.210;27.910;2022-12-07T00:00:26;2.60;;;1.83;;
37367;SDS011;23240;43.210;27.910;2022-12-07T00:02:52;5.78;;;2.67;;
37367;SDS011;23240;43.210;27.910;2022-12-07T00:05:17;2.72;;;1.63;;
37367;SDS011;23240;43.210;27.910;2022-12-07T00:07:43;7.45;;;3.05;;
37367;SDS011;23240;43.210;27.910;2022-12-07T00:10:08;6.95;;;2.60;;
37367;SDS011;23240;43.210;27.910;2022-12-07T00:12:34;10.27;;;2.53;;
37367;SDS011;23240;43.210;27.910;2022-12-07T00:14:59;2.33;;;1.52;;
37367;SDS011;23240;43.210;27.910;2022-12-07T00:17:25;5.53;;;1.73;;
37367;SDS011;23240;43.210;27.910;2022-12-07T00:19:50;4.90;;;2.25;;
37367;SDS011;23240;43.210;27.910;2022-12-07T00:22:16;7.05;;;2.75;;
37367;SDS011;23240;43.210;27.910;2022-12-07T00:24:41;6.93;;;2.17;;
37367;SDS011;23240;43.210;27.910;2022-12-07T00:27:07;2.78;;;1.35;;
37367;SDS011;23240;43.210;27.910;2022-12-07T00:29:32;6.63;;;1.98;;
37367;SDS011;23240;43.210;27.910;2022-12-07T00:31:58;8.60;;;2.47;;
37367;SDS011;23240;43.210;27.910;2022-12-07T00:34:23;3.63;;;1.88;;
37367;SDS011;23240;43.210;27.910;2022-12-07T00:36:49;3.88;;;2.25;;
37367;SDS011;23240;43.210;27.910;2022-12-07T00:39:15;5.82;;;2.10;;
37367;SDS011;23240;43.210;27.910;2022-12-07T00:41:41;5.03;;;1.85;;
37367;SDS011;23240;43.210;27.910;2022-12-07T00:44:06;2.33;;;1.98;;
37367;SDS011;23240;43.210;27.910;2022-12-07T00:46:32;3.95;;;2.10;;
37367;SDS011;23240;43.210;27.910;2022-12-07T00:48:57;3.97;;;1.58;;
37367;SDS011;23240;43.210;27.910;2022-12-07T00:51:23;2.83;;;1.20;;
37367;SDS011;23240;43.210;27.910;2022-12-07T00:53:50;6.32;;;2.15;;
37367;SDS011;23240;43.210;27.910;2022-12-07T00:56:23;6.95;;;2.15;;
37367;SDS011;23240;43.210;27.910;2022-12-07T00:59:01;4.05;;;1.65;;
37367;SDS011;23240;43.210;27.910;2022-12-07T01:01:29;1.63;;;1.13;;
37367;SDS011;23240;43.210;27.910;2022-12-07T01:04:00;2.60;;;1.35;;
37367;SDS011;23240;43.210;27.910;2022-12-07T01:06:26;2.95;;;1.58;;
37367;SDS011;23240;43.210;27.910;2022-12-07T01:08:52;3.15;;;1.55;;
37367;SDS011;23240;43.210;27.910;2022-12-07T01:11:19;4.90;;;1.80;;
37367;SDS011;23240;43.210;27.910;2022-12-07T01:13:46;2.85;;;1.58;;
37367;SDS011;23240;43.210;27.910;2022-12-07T01:16:14;3.85;;;1.83;;
37367;SDS011;23240;43.210;27.910;2022-12-07T01:18:41;3.22;;;1.30;;
37367;SDS011;23240;43.210;27.910;2022-12-07T01:21:09;3.13;;;1.48;;
37367;SDS011;23240;43.210;27.910;2022-12-07T01:23:37;5.28;;;1.80;;
37367;SDS011;23240;43.210;27.910;2022-12-07T01:26:09;4.60;;;1.63;;
37367;SDS011;23240;43.210;27.910;2022-12-07T01:28:37;3.38;;;1.67;;
37367;SDS011;23240;43.210;27.910;2022-12-07T01:31:06;2.42;;;1.27;;
37367;SDS011;23240;43.210;27.910;2022-12-07T01:33:35;3.67;;;1.88;;
37367;SDS011;23240;43.210;27.910;2022-12-07T01:36:04;1.52;;;1.13;;
37367;SDS011;23240;43.210;27.910;2022-12-07T01:38:32;4.45;;;1.60;;
37367;SDS011;23240;43.210;27.910;2022-12-07T01:40:58;1.70;;;1.35;;
37367;SDS011;23240;43.210;27.910;2022-12-07T01:43:26;4.13;;;1.42;;
37367;SDS011;23240;43.210;27.910;2022-12-07T01:45:52;3.72;;;1.45;;
37367;SDS011;23240;43.210;27.910;2022-12-07T01:48:20;2.47;;;1.52;;
37367;SDS011;23240;43.210;27.910;2022-12-07T01:50:51;5.95;;;2.28;;
37367;SDS011;23240;43.210;27.910;2022-12-07T01:53:18;3.50;;;1.27;;
37367;SDS011;23240;43.210;27.910;2022-12-07T01:55:44;7.10;;;2.05;;
37367;SDS011;23240;43.210;27.910;2022-12-07T01:58:12;5.13;;;2.22;;
37367;SDS011;23240;43.210;27.910;2022-12-07T02:00:41;3.58;;;1.77;;
37367;SDS011;23240;43.210;27.910;2022-12-07T02:03:49;3.20;;;1.63;;
37367;SDS011;23240;43.210;27.910;2022-12-07T02:05:59;3.00;;;1.88;;
37367;SDS011;23240;43.210;27.910;2022-12-07T02:08:25;2.17;;;1.40;;
37367;SDS011;23240;43.210;27.910;2022-12-07T02:10:51;4.72;;;1.98;;
37367;SDS011;23240;43.210;27.910;2022-12-07T02:13:19;3.65;;;2.10;;
37367;SDS011;23240;43.210;27.910;2022-12-07T02:27:32;4.47;;;1.83;;
37367;SDS011;23240;43.210;27.910;2022-12-07T02:30:24;1.88;;;1.42;;
37367;SDS011;23240;43.210;27.910;2022-12-07T02:32:58;4.13;;;2.00;;
37367;SDS011;23240;43.210;27.910;2022-12-07T02:35:28;5.43;;;2.35;;
37367;SDS011;23240;43.210;27.910;2022-12-07T02:40:39;4.85;;;2.22;;
37367;SDS011;23240;43.210;27.910;2022-12-07T02:43:25;6.55;;;2.50;;
37367;SDS011;23240;43.210;27.910;2022-12-07T02:45:54;8.13;;;2.60;;
37367;SDS011;23240;43.210;27.910;2022-12-07T02:48:23;7.03;;;2.33;;
37367;SDS011;23240;43.210;27.910;2022-12-07T02:50:51;5.25;;;2.17;;
37367;SDS011;23240;43.210;27.910;2022-12-07T03:18:20;7.47;;;2.63;;
37367;SDS011;23240;43.210;27.910;2022-12-07T03:20:49;9.68;;;2.90;;
37367;SDS011;23240;43.210;27.910;2022-12-07T03:23:18;4.07;;;2.60;;
37367;SDS011;23240;43.210;27.910;2022-12-07T03:25:46;6.90;;;3.30;;
37367;SDS011;23240;43.210;27.910;2022-12-07T03:28:16;6.25;;;2.45;;
37367;SDS011;23240;43.210;27.910;2022-12-07T03:30:46;7.68;;;3.03;;
37367;SDS011;23240;43.210;27.910;2022-12-07T03:33:18;8.40;;;3.15;;
37367;SDS011;23240;43.210;27.910;2022-12-07T03:35:52;12.52;;;3.40;;
37367;SDS011;23240;43.210;27.910;2022-12-07T03:38:36;7.38;;;2.88;;
37367;SDS011;23240;43.210;27.910;2022-12-07T03:41:28;7.78;;;3.08;;
37367;SDS011;23240;43.210;27.910;2022-12-07T03:43:55;9.25;;;3.47;;
37367;SDS011;23240;43.210;27.910;2022-12-07T03:49:01;9.52;;;3.75;;
37367;SDS011;23240;43.210;27.910;2022-12-07T03:51:36;5.27;;;2.73;;
37367;SDS011;23240;43.210;27.910;2022-12-07T03:54:15;7.47;;;2.80;;
37367;SDS011;23240;43.210;27.910;2022-12-07T03:56:48;6.55;;;3.05;;
37367;SDS011;23240;43.210;27.910;2022-12-07T03:59:15;7.20;;;3.33;;
37367;SDS011;23240;43.210;27.910;2022-12-07T04:01:45;8.50;;;3.15;;
37367;SDS011;23240;43.210;27.910;2022-12-07T04:04:17;10.32;;;3.47;;
37367;SDS011;23240;43.210;27.910;2022-12-07T04:06:43;9.40;;;3.22;;
37367;SDS011;23240;43.210;27.910;2022-12-07T04:09:08;5.28;;;2.70;;
37367;SDS011;23240;43.210;27.910;2022-12-07T04:11:34;6.63;;;2.72;;
37367;SDS011;23240;43.210;27.910;2022-12-07T04:14:00;5.55;;;2.55;;
37367;SDS011;23240;43.210;27.910;2022-12-07T04:16:54;8.00;;;3.13;;
37367;SDS011;23240;43.210;27.910;2022-12-07T04:19:28;10.57;;;3.28;;
37367;SDS011;23240;43.210;27.910;2022-12-07T04:21:55;5.30;;;2.95;;
37367;SDS011;23240;43.210;27.910;2022-12-07T04:24:22;8.07;;;2.92;;
37367;SDS011;23240;43.210;27.910;2022-12-07T04:26:48;7.47;;;3.33;;
37367;SDS011;23240;43.210;27.910;2022-12-07T04:29:15;5.32;;;2.63;;
37367;SDS011;23240;43.210;27.910;2022-12-07T04:31:41;8.77;;;3.22;;
37367;SDS011;23240;43.210;27.910;2022-12-07T04:34:08;7.40;;;2.85;;
37367;SDS011;23240;43.210;27.910;2022-12-07T04:36:33;7.53;;;2.47;;
37367;SDS011;23240;43.210;27.910;2022-12-07T04:38:59;6.85;;;3.15;;
37367;SDS011;23240;43.210;27.910;2022-12-07T04:41:26;7.43;;;3.38;;
37367;SDS011;23240;43.210;27.910;2022-12-07T04:43:55;8.75;;;3.40;;
37367;SDS011;23240;43.210;27.910;2022-12-07T04:46:25;8.82;;;3.47;;
37367;SDS011;23240;43.210;27.910;2022-12-07T04:48:52;6.75;;;2.85;;
37367;SDS011;23240;43.210;27.910;2022-12-07T04:51:19;9.02;;;3.25;;
37367;SDS011;23240;43.210;27.910;2022-12-07T04:53:46;8.75;;;3.15;;
37367;SDS011;23240;43.210;27.910;2022-12-07T04:56:12;8.98;;;3.17;;
37367;SDS011;23240;43.210;27.910;2022-12-07T04:58:38;11.02;;;3.92;;
37367;SDS011;23240;43.210;27.910;2022-12-07T05:01:04;10.25;;;3.70;;
37367;SDS011;23240;43.210;27.910;2022-12-07T05:03:29;10.40;;;3.65;;
37367;SDS011;23240;43.210;27.910;2022-12-07T05:05:55;8.85;;;3.08;;
37367;SDS011;23240;43.210;27.910;2022-12-07T05:08:20;11.63;;;3.88;;
37367;SDS011;23240;43.210;27.910;2022-12-07T05:10:46;12.63;;;4.78;;
37367;SDS011;23240;43.210;27.910;2022-12-07T05:13:13;11.52;;;4.93;;
37367;SDS011;23240;43.210;27.910;2022-12-07T05:15:39;9.45;;;3.80;;
37367;SDS011;23240;43.210;27.910;2022-12-07T05:18:05;10.43;;;3.90;;
37367;SDS011;23240;43.210;27.910;2022-12-07T05:20:31;8.88;;;3.80;;
37367;SDS011;23240;43.210;27.910;2022-12-07T05:22:57;7.30;;;3.58;;
37367;SDS011;23240;43.210;27.910;2022-12-07T05:25:23;9.88;;;4.15;;
37367;SDS011;23240;43.210;27.910;2022-12-07T05:27:49;13.02;;;4.45;;
37367;SDS011;23240;43.210;27.910;2022-12-07T05:30:14;13.10;;;4.80;;
37367;SDS011;23240;43.210;27.910;2022-12-07T05:32:40;11.75;;;4.40;;
37367;SDS011;23240;43.210;27.910;2022-12-07T05:35:06;13.85;;;4.05;;
37367;SDS011;23240;43.210;27.910;2022-12-07T05:37:31;12.18;;;4.72;;
37367;SDS011;23240;43.210;27.910;2022-12-07T05:39:57;13.45;;;5.65;;
37367;SDS011;23240;43.210;27.910;2022-12-07T05:42:22;21.92;;;6.07;;
37367;SDS011;23240;43.210;27.910;2022-12-07T05:44:48;12.52;;;4.65;;
37367;SDS011;23240;43.210;27.910;2022-12-07T05:47:14;16.23;;;4.70;;
37367;SDS011;23240;43.210;27.910;2022-12-07T05:49:40;17.75;;;6.10;;
37367;SDS011;23240;43.210;27.910;2022-12-07T05:52:06;16.05;;;5.28;;
37367;SDS011;23240;43.210;27.910;2022-12-07T05:54:32;20.55;;;6.18;;
37367;SDS011;23240;43.210;27.910;2022-12-07T05:56:58;13.63;;;5.25;;
37367;SDS011;23240;43.210;27.910;2022-12-07T05:59:24;20.30;;;5.97;;
37367;SDS011;23240;43.210;27.910;2022-12-07T06:01:52;13.50;;;5.95;;
37367;SDS011;23240;43.210;27.910;2022-12-07T06:04:21;15.57;;;6.53;;
37367;SDS011;23240;43.210;27.910;2022-12-07T06:06:47;17.48;;;6.57;;
37367;SDS011;23240;43.210;27.910;2022-12-07T06:09:13;17.48;;;7.53;;
37367;SDS011;23240;43.210;27.910;2022-12-07T06:11:39;16.45;;;5.90;;
37367;SDS011;23240;43.210;27.910;2022-12-07T06:14:24;17.77;;;7.30;;
37367;SDS011;23240;43.210;27.910;2022-12-07T06:16:49;18.02;;;6.88;;
37367;SDS011;23240;43.210;27.910;2022-12-07T06:19:15;16.35;;;6.05;;
37367;SDS011;23240;43.210;27.910;2022-12-07T06:21:41;16.55;;;6.28;;
37367;SDS011;23240;43.210;27.910;2022-12-07T06:24:09;17.92;;;6.38;;
37367;SDS011;23240;43.210;27.910;2022-12-07T06:26:36;13.00;;;5.90;;
37367;SDS011;23240;43.210;27.910;2022-12-07T06:29:02;19.23;;;7.22;;
37367;SDS011;23240;43.210;27.910;2022-12-07T06:31:27;17.83;;;7.97;;
37367;SDS011;23240;43.210;27.910;2022-12-07T06:33:59;26.33;;;8.07;;
37367;SDS011;23240;43.210;27.910;2022-12-07T06:36:33;19.45;;;7.03;;
37367;SDS011;23240;43.210;27.910;2022-12-07T06:38:59;18.65;;;7.65;;
37367;SDS011;23240;43.210;27.910;2022-12-07T06:41:25;19.00;;;6.65;;
37367;SDS011;23240;43.210;27.910;2022-12-07T06:43:50;19.85;;;7.53;;
37367;SDS011;23240;43.210;27.910;2022-12-07T06:46:16;15.13;;;6.35;;
37367;SDS011;23240;43.210;27.910;2022-12-07T06:48:42;14.75;;;6.13;;
37367;SDS011;23240;43.210;27.910;2022-12-07T06:51:08;17.48;;;6.80;;
37367;SDS011;23240;43.210;27.910;2022-12-07T06:53:35;18.77;;;6.85;;
37367;SDS011;23240;43.210;27.910;2022-12-07T06:56:01;15.95;;;6.00;;
37367;SDS011;23240;43.210;27.910;2022-12-07T06:58:26;22.40;;;7.30;;
37367;SDS011;23240;43.210;27.910;2022-12-07T07:00:52;22.08;;;8.20;;
37367;SDS011;23240;43.210;27.910;2022-12-07T07:03:18;21.38;;;7.03;;
37367;SDS011;23240;43.210;27.910;2022-12-07T07:05:44;16.45;;;6.57;;
37367;SDS011;23240;43.210;27.910;2022-12-07T07:08:10;11.23;;;5.55;;
37367;SDS011;23240;43.210;27.910;2022-12-07T07:10:36;17.38;;;6.53;;
37367;SDS011;23240;43.210;27.910;2022-12-07T07:13:02;22.23;;;6.68;;
37367;SDS011;23240;43.210;27.910;2022-12-07T07:15:28;15.13;;;5.75;;
37367;SDS011;23240;43.210;27.910;2022-12-07T07:17:54;16.48;;;6.28;;
37367;SDS011;23240;43.210;27.910;2022-12-07T07:20:20;17.95;;;6.75;;
37367;SDS011;23240;43.210;27.910;2022-12-07T07:22:45;19.52;;;6.68;;
37367;SDS011;23240;43.210;27.910;2022-12-07T07:25:11;19.10;;;6.00;;
37367;SDS011;23240;43.210;27.910;2022-12-07T07:27:37;17.38;;;6.55;;
37367;SDS011;23240;43.210;27.910;2022-12-07T07:30:03;11.32;;;4.82;;
37367;SDS011;23240;43.210;27.910;2022-12-07T07:32:30;13.50;;;5.50;;
37367;SDS011;23240;43.210;27.910;2022-12-07T07:34:55;20.00;;;5.82;;
37367;SDS011;23240;43.210;27.910;2022-12-07T07:37:21;18.70;;;5.70;;
37367;SDS011;23240;43.210;27.910;2022-12-07T07:39:46;17.25;;;6.03;;
37367;SDS011;23240;43.210;27.910;2022-12-07T07:42:12;15.30;;;5.38;;
37367;SDS011;23240;43.210;27.910;2022-12-07T07:44:37;17.17;;;6.25;;
37367;SDS011;23240;43.210;27.910;2022-12-07T07:47:03;18.65;;;6.97;;
37367;SDS011;23240;43.210;27.910;2022-12-07T07:49:29;17.52;;;5.55;;
37367;SDS011;23240;43.210;27.910;2022-12-07T07:51:54;23.38;;;5.75;;
37367;SDS011;23240;43.210;27.910;2022-12-07T07:54:20;13.88;;;5.80;;
37367;SDS011;23240;43.210;27.910;2022-12-07T07:56:45;21.90;;;7.88;;
37367;SDS011;23240;43.210;27.910;2022-12-07T07:59:11;19.63;;;7.32;;
37367;SDS011;23240;43.210;27.910;2022-12-07T08:01:36;13.25;;;5.18;;
37367;SDS011;23240;43.210;27.910;2022-12-07T08:04:02;16.02;;;5.50;;
37367;SDS011;23240;43.210;27.910;2022-12-07T08:06:28;16.02;;;5.40;;
37367;SDS011;23240;43.210;27.910;2022-12-07T08:08:53;17.45;;;5.70;;
37367;SDS011;23240;43.210;27.910;2022-12-07T08:11:19;14.02;;;4.60;;
37367;SDS011;23240;43.210;27.910;2022-12-07T08:13:47;14.55;;;5.40;;
37367;SDS011;23240;43.210;27.910;2022-12-07T08:16:13;20.77;;;6.00;;
37367;SDS011;23240;43.210;27.910;2022-12-07T08:18:40;17.10;;;5.75;;
37367;SDS011;23240;43.210;27.910;2022-12-07T08:21:07;19.23;;;5.68;;
37367;SDS011;23240;43.210;27.910;2022-12-07T08:23:35;15.43;;;5.40;;
37367;SDS011;23240;43.210;27.910;2022-12-07T08:26:01;11.18;;;4.95;;
37367;SDS011;23240;43.210;27.910;2022-12-07T08:28:29;10.68;;;4.82;;
37367;SDS011;23240;43.210;27.910;2022-12-07T08:31:02;10.85;;;4.40;;
37367;SDS011;23240;43.210;27.910;2022-12-07T08:35:54;12.80;;;4.82;;
37367;SDS011;23240;43.210;27.910;2022-12-07T08:38:25;15.15;;;4.47;;
37367;SDS011;23240;43.210;27.910;2022-12-07T08:40:54;11.70;;;4.32;;
37367;SDS011;23240;43.210;27.910;2022-12-07T08:43:23;12.43;;;4.60;;
37367;SDS011;23240;43.210;27.910;2022-12-07T08:45:51;15.57;;;4.72;;
37367;SDS011;23240;43.210;27.910;2022-12-07T08:48:26;11.60;;;4.57;;
37367;SDS011;23240;43.210;27.910;2022-12-07T08:50:51;12.75;;;3.95;;
37367;SDS011;23240;43.210;27.910;2022-12-07T08:53:17;13.70;;;4.50;;
37367;SDS011;23240;43.210;27.910;2022-12-07T08:55:43;10.20;;;3.95;;
37367;SDS011;23240;43.210;27.910;2022-12-07T08:58:11;10.93;;;3.70;;
37367;SDS011;23240;43.210;27.910;2022-12-07T09:00:37;7.90;;;3.33;;
37367;SDS011;23240;43.210;27.910;2022-12-07T09:03:02;10.10;;;3.88;;
37367;SDS011;23240;43.210;27.910;2022-12-07T09:05:28;9.45;;;3.75;;
37367;SDS011;23240;43.210;27.910;2022-12-07T09:07:55;5.38;;;2.88;;
37367;SDS011;23240;43.210;27.910;2022-12-07T09:10:24;8.18;;;3.53;;
37367;SDS011;23240;43.210;27.910;2022-12-07T09:12:49;9.85;;;3.88;;
37367;SDS011;23240;43.210;27.910;2022-12-07T09:15:15;7.18;;;3.28;;
37367;SDS011;23240;43.210;27.910;2022-12-07T09:17:40;8.27;;;3.92;;
37367;SDS011;23240;43.210;27.910;2022-12-07T09:20:06;10.50;;;3.90;;
37367;SDS011;23240;43.210;27.910;2022-12-07T09:22:32;11.38;;;3.55;;
37367;SDS011;23240;43.210;27.910;2022-12-07T09:24:58;9.35;;;4.00;;
37367;SDS011;23240;43.210;27.910;2022-12-07T09:27:24;12.40;;;3.70;;
37367;SDS011;23240;43.210;27.910;2022-12-07T09:29:49;10.70;;;3.65;;
37367;SDS011;23240;43.210;27.910;2022-12-07T09:32:15;11.65;;;4.60;;
37367;SDS011;23240;43.210;27.910;2022-12-07T09:34:41;14.45;;;4.60;;
37367;SDS011;23240;43.210;27.910;2022-12-07T09:37:06;8.60;;;3.58;;
37367;SDS011;23240;43.210;27.910;2022-12-07T09:39:32;11.77;;;4.07;;
37367;SDS011;23240;43.210;27.910;2022-12-07T09:41:58;9.50;;;3.60;;
37367;SDS011;23240;43.210;27.910;2022-12-07T09:44:25;8.88;;;3.70;;
37367;SDS011;23240;43.210;27.910;2022-12-07T09:46:52;10.90;;;4.50;;
37367;SDS011;23240;43.210;27.910;2022-12-07T09:49:19;12.43;;;4.50;;
37367;SDS011;23240;43.210;27.910;2022-12-07T09:51:59;11.63;;;4.18;;
37367;SDS011;23240;43.210;27.910;2022-12-07T09:54:27;11.70;;;3.75;;
37367;SDS011;23240;43.210;27.910;2022-12-07T09:56:54;10.65;;;3.80;;
37367;SDS011;23240;43.210;27.910;2022-12-07T09:59:20;11.18;;;3.92;;
37367;SDS011;23240;43.210;27.910;2022-12-07T10:01:48;12.45;;;3.90;;
37367;SDS011;23240;43.210;27.910;2022-12-07T10:04:16;10.85;;;4.30;;
37367;SDS011;23240;43.210;27.910;2022-12-07T10:06:45;8.88;;;3.60;;
37367;SDS011;23240;43.210;27.910;2022-12-07T10:09:13;12.18;;;4.38;;
37367;SDS011;23240;43.210;27.910;2022-12-07T10:12:00;9.65;;;3.55;;
37367;SDS011;23240;43.210;27.910;2022-12-07T10:14:56;9.93;;;3.50;;
37367;SDS011;23240;43.210;27.910;2022-12-07T10:17:32;15.43;;;5.15;;
37367;SDS011;23240;43.210;27.910;2022-12-07T10:22:57;16.70;;;5.03;;
37367;SDS011;23240;43.210;27.910;2022-12-07T10:25:30;12.40;;;4.78;;
37367;SDS011;23240;43.210;27.910;2022-12-07T10:28:17;14.13;;;4.50;;
37367;SDS011;23240;43.210;27.910;2022-12-07T10:34:12;13.27;;;4.85;;
37367;SDS011;23240;43.210;27.910;2022-12-07T10:36:20;11.13;;;4.07;;
37367;SDS011;23240;43.210;27.910;2022-12-07T10:38:51;11.35;;;4.43;;
37367;SDS011;23240;43.210;27.910;2022-12-07T10:41:23;13.80;;;4.32;;
37367;SDS011;23240;43.210;27.910;2022-12-07T10:43:53;10.30;;;4.53;;
37367;SDS011;23240;43.210;27.910;2022-12-07T10:52:05;12.07;;;3.95;;
37367;SDS011;23240;43.210;27.910;2022-12-07T10:55:14;11.52;;;4.60;;
37367;SDS011;23240;43.210;27.910;2022-12-07T11:00:29;13.98;;;4.75;;
37367;SDS011;23240;43.210;27.910;2022-12-07T11:13:37;17.10;;;4.70;;
37367;SDS011;23240;43.210;27.910;2022-12-07T11:21:45;13.50;;;4.38;;
37367;SDS011;23240;43.210;27.910;2022-12-07T11:25:02;9.00;;;3.53;;
37367;SDS011;23240;43.210;27.910;2022-12-07T11:30:45;11.68;;;4.28;;
37367;SDS011;23240;43.210;27.910;2022-12-07T11:42:12;15.00;;;4.80;;
37367;SDS011;23240;43.210;27.910;2022-12-07T11:44:52;12.18;;;4.63;;
37367;SDS011;23240;43.210;27.910;2022-12-07T11:47:25;14.20;;;4.00;;
37367;SDS011;23240;43.210;27.910;2022-12-07T12:06:40;9.93;;;4.00;;
37367;SDS011;23240;43.210;27.910;2022-12-07T12:09:17;10.75;;;3.50;;
37367;SDS011;23240;43.210;27.910;2022-12-07T12:17:16;10.63;;;3.70;;
37367;SDS011;23240;43.210;27.910;2022-12-07T12:31:14;12.43;;;4.75;;
37367;SDS011;23240;43.210;27.910;2022-12-07T12:33:51;15.23;;;4.88;;
37367;SDS011;23240;43.210;27.910;2022-12-07T12:36:26;13.48;;;4.43;;
37367;SDS011;23240;43.210;27.910;2022-12-07T12:54:24;15.75;;;4.72;;
37367;SDS011;23240;43.210;27.910;2022-12-07T13:16:35;11.75;;;4.45;;
37367;SDS011;23240;43.210;27.910;2022-12-07T13:18:37;12.75;;;4.18;;
37367;SDS011;23240;43.210;27.910;2022-12-07T13:28:58;12.65;;;4.03;;
37367;SDS011;23240;43.210;27.910;2022-12-07T13:31:48;12.25;;;4.65;;
37367;SDS011;23240;43.210;27.910;2022-12-07T13:34:35;14.85;;;4.28;;
37367;SDS011;23240;43.210;27.910;2022-12-07T13:37:10;13.77;;;4.65;;
37367;SDS011;23240;43.210;27.910;2022-12-07T13:39:49;15.30;;;4.20;;
37367;SDS011;23240;43.210;27.910;2022-12-07T13:50:01;12.82;;;4.15;;
37367;SDS011;23240;43.210;27.910;2022-12-07T13:52:27;10.25;;;3.53;;
37367;SDS011;23240;43.210;27.910;2022-12-07T13:57:27;14.23;;;5.13;;
37367;SDS011;23240;43.210;27.910;2022-12-07T13:59:55;25.63;;;9.80;;
37367;SDS011;23240;43.210;27.910;2022-12-07T14:02:25;19.65;;;6.72;;
37367;SDS011;23240;43.210;27.910;2022-12-07T14:10:29;16.23;;;5.00;;
37367;SDS011;23240;43.210;27.910;2022-12-07T14:12:57;14.07;;;4.80;;
37367;SDS011;23240;43.210;27.910;2022-12-07T14:15:24;16.00;;;5.55;;
37367;SDS011;23240;43.210;27.910;2022-12-07T14:17:58;13.80;;;4.88;;
37367;SDS011;23240;43.210;27.910;2022-12-07T14:20:35;15.02;;;5.13;;
37367;SDS011;23240;43.210;27.910;2022-12-07T14:23:06;13.05;;;4.88;;
37367;SDS011;23240;43.210;27.910;2022-12-07T14:25:51;16.42;;;4.70;;
37367;SDS011;23240;43.210;27.910;2022-12-07T14:28:25;15.45;;;5.53;;
37367;SDS011;23240;43.210;27.910;2022-12-07T14:30:51;14.23;;;5.78;;
37367;SDS011;23240;43.210;27.910;2022-12-07T14:33:16;15.98;;;5.60;;
37367;SDS011;23240;43.210;27.910;2022-12-07T14:35:46;19.67;;;6.75;;
37367;SDS011;23240;43.210;27.910;2022-12-07T14:38:11;16.83;;;5.40;;
37367;SDS011;23240;43.210;27.910;2022-12-07T14:40:37;18.83;;;5.85;;
37367;SDS011;23240;43.210;27.910;2022-12-07T14:43:10;17.52;;;5.57;;
37367;SDS011;23240;43.210;27.910;2022-12-07T14:45:39;12.85;;;4.35;;
37367;SDS011;23240;43.210;27.910;2022-12-07T14:48:05;15.80;;;5.00;;
37367;SDS011;23240;43.210;27.910;2022-12-07T14:50:37;15.38;;;5.03;;
37367;SDS011;23240;43.210;27.910;2022-12-07T14:53:09;15.68;;;4.72;;
37367;SDS011;23240;43.210;27.910;2022-12-07T14:55:38;15.73;;;5.45;;
37367;SDS011;23240;43.210;27.910;2022-12-07T14:58:04;10.77;;;4.68;;
37367;SDS011;23240;43.210;27.910;2022-12-07T15:00:30;14.30;;;4.72;;
37367;SDS011;23240;43.210;27.910;2022-12-07T15:02:55;13.57;;;5.57;;
37367;SDS011;23240;43.210;27.910;2022-12-07T15:05:22;15.07;;;5.50;;
37367;SDS011;23240;43.210;27.910;2022-12-07T15:07:48;13.20;;;5.45;;
37367;SDS011;23240;43.210;27.910;2022-12-07T15:10:16;17.70;;;6.18;;
37367;SDS011;23240;43.210;27.910;2022-12-07T15:12:49;18.25;;;5.85;;
37367;SDS011;23240;43.210;27.910;2022-12-07T15:15:15;18.88;;;5.82;;
37367;SDS011;23240;43.210;27.910;2022-12-07T15:17:42;17.17;;;5.85;;
37367;SDS011;23240;43.210;27.910;2022-12-07T15:20:09;18.05;;;6.18;;
37367;SDS011;23240;43.210;27.910;2022-12-07T15:22:37;19.73;;;5.93;;
37367;SDS011;23240;43.210;27.910;2022-12-07T15:25:03;14.60;;;5.03;;
37367;SDS011;23240;43.210;27.910;2022-12-07T15:27:30;13.55;;;5.18;;
37367;SDS011;23240;43.210;27.910;2022-12-07T15:29:56;13.40;;;5.25;;
37367;SDS011;23240;43.210;27.910;2022-12-07T15:32:22;17.92;;;6.65;;
37367;SDS011;23240;43.210;27.910;2022-12-07T15:34:48;31.92;;;6.07;;
37367;SDS011;23240;43.210;27.910;2022-12-07T15:37:15;18.27;;;6.68;;
37367;SDS011;23240;43.210;27.910;2022-12-07T15:39:40;18.67;;;6.72;;
37367;SDS011;23240;43.210;27.910;2022-12-07T15:42:06;17.15;;;5.22;;
37367;SDS011;23240;43.210;27.910;2022-12-07T15:44:32;15.27;;;5.55;;
37367;SDS011;23240;43.210;27.910;2022-12-07T15:47:23;16.38;;;6.50;;
37367;SDS011;23240;43.210;27.910;2022-12-07T15:49:49;16.05;;;5.05;;
37367;SDS011;23240;43.210;27.910;2022-12-07T15:52:14;19.60;;;6.43;;
37367;SDS011;23240;43.210;27.910;2022-12-07T15:54:40;19.33;;;6.13;;
37367;SDS011;23240;43.210;27.910;2022-12-07T15:57:06;14.13;;;5.72;;
37367;SDS011;23240;43.210;27.910;2022-12-07T15:59:31;19.20;;;6.65;;
37367;SDS011;23240;43.210;27.910;2022-12-07T16:01:57;17.27;;;6.25;;
37367;SDS011;23240;43.210;27.910;2022-12-07T16:04:23;18.35;;;5.78;;
37367;SDS011;23240;43.210;27.910;2022-12-07T16:06:49;19.65;;;7.07;;
37367;SDS011;23240;43.210;27.910;2022-12-07T16:09:15;19.23;;;5.35;;
37367;SDS011;23240;43.210;27.910;2022-12-07T16:11:41;16.90;;;5.13;;
37367;SDS011;23240;43.210;27.910;2022-12-07T16:14:06;18.98;;;6.13;;
37367;SDS011;23240;43.210;27.910;2022-12-07T16:16:32;16.00;;;4.55;;
37367;SDS011;23240;43.210;27.910;2022-12-07T16:18:58;14.30;;;4.80;;
37367;SDS011;23240;43.210;27.910;2022-12-07T16:21:23;16.02;;;5.53;;
37367;SDS011;23240;43.210;27.910;2022-12-07T16:23:49;18.98;;;5.32;;
37367;SDS011;23240;43.210;27.910;2022-12-07T16:26:19;14.77;;;4.65;;
37367;SDS011;23240;43.210;27.910;2022-12-07T16:28:48;13.60;;;4.80;;
37367;SDS011;23240;43.210;27.910;2022-12-07T16:31:19;14.45;;;5.03;;
37367;SDS011;23240;43.210;27.910;2022-12-07T16:33:46;20.58;;;5.85;;
37367;SDS011;23240;43.210;27.910;2022-12-07T16:36:12;16.13;;;4.97;;
37367;SDS011;23240;43.210;27.910;2022-12-07T16:38:41;12.05;;;4.60;;
37367;SDS011;23240;43.210;27.910;2022-12-07T16:41:07;15.32;;;5.05;;
37367;SDS011;23240;43.210;27.910;2022-12-07T16:43:33;15.40;;;5.50;;
37367;SDS011;23240;43.210;27.910;2022-12-07T16:46:00;18.60;;;6.00;;
37367;SDS011;23240;43.210;27.910;2022-12-07T16:48:26;16.33;;;5.15;;
37367;SDS011;23240;43.210;27.910;2022-12-07T16:50:51;14.23;;;4.82;;
37367;SDS011;23240;43.210;27.910;2022-12-07T16:53:21;15.52;;;4.60;;
37367;SDS011;23240;43.210;27.910;2022-12-07T16:55:47;16.50;;;5.35;;
37367;SDS011;23240;43.210;27.910;2022-12-07T16:58:13;17.35;;;5.60;;
37367;SDS011;23240;43.210;27.910;2022-12-07T17:00:40;20.05;;;6.35;;
37367;SDS011;23240;43.210;27.910;2022-12-07T17:03:07;15.80;;;5.13;;
37367;SDS011;23240;43.210;27.910;2022-12-07T17:05:36;17.00;;;5.45;;
37367;SDS011;23240;43.210;27.910;2022-12-07T17:08:12;18.83;;;6.50;;
37367;SDS011;23240;43.210;27.910;2022-12-07T17:10:39;17.67;;;5.35;;
37367;SDS011;23240;43.210;27.910;2022-12-07T17:13:07;17.25;;;5.93;;
37367;SDS011;23240;43.210;27.910;2022-12-07T17:15:56;13.30;;;4.60;;
37367;SDS011;23240;43.210;27.910;2022-12-07T17:18:27;17.80;;;4.82;;
37367;SDS011;23240;43.210;27.910;2022-12-07T17:20:53;14.38;;;5.50;;
37367;SDS011;23240;43.210;27.910;2022-12-07T17:23:19;13.88;;;4.85;;
37367;SDS011;23240;43.210;27.910;2022-12-07T17:25:45;16.55;;;5.13;;
37367;SDS011;23240;43.210;27.910;2022-12-07T17:28:10;13.77;;;4.07;;
37367;SDS011;23240;43.210;27.910;2022-12-07T17:30:37;15.60;;;5.75;;
37367;SDS011;23240;43.210;27.910;2022-12-07T17:33:03;18.23;;;5.55;;